Saint Louis, Missouri
Current Conditions -  °F | °C
As of 11:53 PM on Tuesday 27 Jan 2015 (Local Time) from KCPS Reporting Station
Haze Haze  
Wind Chill: 28°   Ceiling: Unl
Heat Index: 28°   Visibility: 6mi
Dew Point: 26°   Wind: 0mph
Humidity: 92%   Direction: NA
Pressure: 30.26"   Gusts: NA
Location:  38.63°N, 90.24°W
Report Text: KCPS 280553Z AUTO 00000KT 6SM BR CLR M02/M03 A3026 RMK AO2 SLP250 I1000 I6000 T10221033 10022 21028 400721028 51004 TSNO
Loading
Personal Weather Stations






























Interactive Weather Map New forecast layout! Learn more

10-Day Weather Forecast

Advertisements
Track Severe Weather on mobile